KJAN 191154Z 15003KT 10SM CLR 24/22 A3004 RMK AO2 SLP166 70004 T02390222 10250 20233 53016 $